首页
METAR-TAF:

METAR-TAF

机场 :

马德普拉塔, 阿根廷

纬度: 37-56S, 经度: 057-35W, 海拔: 18米

当前天气观测

该预报发布于59分钟前的01:00 UTC
风速6节,风向
温度 14°C
湿度 88%
气压 1014 hPa
能见度10公里或以上
少量云层高于3000英尺
多云层高于9000英尺

METAR: SAZM 220100Z 36006KT 9999 FEW030 BKN090 14/12 Q1014

时间: 22:59 (01:59 UTC)

预报

该预报发布于2小时和59分钟前的23:00 UTC
预报有效从22日的 00点(UTC)到 22日的 24点(UTC)
风速5节,风向东北
能見度: 9000
散云层高于2000英尺
多云层高于5000英尺
成为
从 22日的 01点(UTC)到 22日的 03点(UTC)
能見度: 5000
散云层高于1500英尺
轻雾
几率 30% :
短暂存在
从 22日的 02点(UTC)到 22日的 05点(UTC)
能見度: 3000
多云层高于2500英尺
少量云层高于4000英尺, 积雨云.
阴天层高于5000英尺
雷暴, 大雨
成为
从 22日的 06点(UTC)到 22日的 08点(UTC)
风速3节,风向多变
能見度: 0800
散云层高于500英尺
多云层高于900英尺
成为
从 22日的 12点(UTC)到 22日的 15点(UTC)
风速15节,风向南转西南,有时为25节阵风
能见度10公里或以上
1500米以下无云,无积雨云

TAF: SAZM 212300Z 2200/2224 05005KT 9000 RA SCT020 BKN050 TX18/2218Z TN08/2210Z BECMG 2201/2203 5000 BR SCT015 PROB30 TEMPO 2202/2205 3000 +TSRA BKN025 FEW040CB OVC050 BECMG 2206/2208 VRB03KT 0800 FG SCT005 BKN009 BECMG 2212/2215 20015G25KT CAVOK

超过4000个机场的气象观测和天气预报(METAR&TAF报告)。

可查询的气象台以黄色和红色小点在地图上表示。

将鼠标移到小点上方,可查看气象台名称。

然后点击查看天气观测和预报。

如需切换地图:点击带黑十字的绿色按钮放大地图;点击带横线的绿色按钮缩小地图;或者点击绿色箭头查看邻近地区的地图。


METAR-TAF: